<?xml version="1.0" encoding="UTF-8" standalone="no" ?>
<gpx xmlns="http://www.topografix.com/GPX/1/1" xmlns:xsi="http://www.w3.org/2001/XMLSchema-instance" xsi:schemaLocation="http://www.topografix.com/GPX/1/1 http://www.topografix.com/GPX/1/1/gpx.xsd" version="1.1" creator="VisuGPX - https://www.visugpx.com">
  <metadata>
    <name>grave de peille,peillon peille 14 km 700 m</name>
    <desc><![CDATA[GRAVE DE PEILLE,PEILLON,PEILLE 14 KM 700 M
IGN 3742 OT]]></desc>
  </metadata>
  <trk>
    <name><![CDATA[OR-5653449--Peillon:Grave Peille Peille]]></name>
    <trkseg>
      <trkpt lat="43.79248" lon="7.37989">
        <ele>245</ele>
        <time>2017-02-03T21:36:53Z</time>
      </trkpt>
      <trkpt lat="43.79247" lon="7.37989">
        <ele>245</ele>
        <time>2017-02-03T21:38:53Z</time>
      </trkpt>
      <trkpt lat="43.79225" lon="7.37985">
        <ele>247</ele>
        <time>2017-02-03T21:40:53Z</time>
      </trkpt>
      <trkpt lat="43.79223" lon="7.3799">
        <ele>248</ele>
        <time>2017-02-03T21:42:53Z</time>
      </trkpt>
      <trkpt lat="43.79227" lon="7.37984">
        <ele>246</ele>
        <time>2017-02-03T21:44:53Z</time>
      </trkpt>
      <trkpt lat="43.79216" lon="7.37988">
        <ele>248</ele>
        <time>2017-02-03T21:46:53Z</time>
      </trkpt>
      <trkpt lat="43.79218" lon="7.37987">
        <ele>248</ele>
        <time>2017-02-03T21:48:53Z</time>
      </trkpt>
      <trkpt lat="43.79223" lon="7.37969">
        <ele>245</ele>
        <time>2017-02-03T21:50:53Z</time>
      </trkpt>
      <trkpt lat="43.79212" lon="7.37962">
        <ele>246</ele>
        <time>2017-02-03T21:52:53Z</time>
      </trkpt>
      <trkpt lat="43.79201" lon="7.37954">
        <ele>246</ele>
        <time>2017-02-03T21:54:53Z</time>
      </trkpt>
      <trkpt lat="43.79181" lon="7.37929">
        <ele>245</ele>
        <time>2017-02-03T21:56:53Z</time>
      </trkpt>
      <trkpt lat="43.7916" lon="7.3792">
        <ele>246</ele>
        <time>2017-02-03T21:58:53Z</time>
      </trkpt>
      <trkpt lat="43.79157" lon="7.3792">
        <ele>246</ele>
        <time>2017-02-03T22:00:53Z</time>
      </trkpt>
      <trkpt lat="43.7915" lon="7.37916">
        <ele>246</ele>
        <time>2017-02-03T22:02:53Z</time>
      </trkpt>
      <trkpt lat="43.79136" lon="7.37903">
        <ele>244</ele>
        <time>2017-02-03T22:04:53Z</time>
      </trkpt>
      <trkpt lat="43.79125" lon="7.379">
        <ele>245</ele>
        <time>2017-02-03T22:06:53Z</time>
      </trkpt>
      <trkpt lat="43.79114" lon="7.37896">
        <ele>245</ele>
        <time>2017-02-03T22:08:53Z</time>
      </trkpt>
      <trkpt lat="43.79103" lon="7.37895">
        <ele>246</ele>
        <time>2017-02-03T22:10:53Z</time>
      </trkpt>
      <trkpt lat="43.79109" lon="7.37877">
        <ele>243</ele>
        <time>2017-02-03T22:12:53Z</time>
      </trkpt>
      <trkpt lat="43.79108" lon="7.3786">
        <ele>241</ele>
        <time>2017-02-03T22:14:53Z</time>
      </trkpt>
      <trkpt lat="43.79103" lon="7.37856">
        <ele>241</ele>
        <time>2017-02-03T22:16:53Z</time>
      </trkpt>
      <trkpt lat="43.79096" lon="7.37853">
        <ele>242</ele>
        <time>2017-02-03T22:18:53Z</time>
      </trkpt>
      <trkpt lat="43.79087" lon="7.3785">
        <ele>243</ele>
        <time>2017-02-03T22:20:53Z</time>
      </trkpt>
      <trkpt lat="43.79079" lon="7.37851">
        <ele>244</ele>
        <time>2017-02-03T22:22:53Z</time>
      </trkpt>
      <trkpt lat="43.79072" lon="7.37854">
        <ele>244</ele>
        <time>2017-02-03T22:24:53Z</time>
      </trkpt>
      <trkpt lat="43.79058" lon="7.37875">
        <ele>247</ele>
        <time>2017-02-03T22:26:53Z</time>
      </trkpt>
      <trkpt lat="43.79041" lon="7.37895">
        <ele>250</ele>
        <time>2017-02-03T22:28:53Z</time>
      </trkpt>
      <trkpt lat="43.79036" lon="7.3789">
        <ele>249</ele>
        <time>2017-02-03T22:30:53Z</time>
      </trkpt>
      <trkpt lat="43.79011" lon="7.37865">
        <ele>247</ele>
        <time>2017-02-03T22:32:53Z</time>
      </trkpt>
      <trkpt lat="43.79006" lon="7.37855">
        <ele>246</ele>
        <time>2017-02-03T22:34:53Z</time>
      </trkpt>
      <trkpt lat="43.79" lon="7.37844">
        <ele>245</ele>
        <time>2017-02-03T22:36:53Z</time>
      </trkpt>
      <trkpt lat="43.78988" lon="7.37835">
        <ele>245</ele>
        <time>2017-02-03T22:38:53Z</time>
      </trkpt>
      <trkpt lat="43.78978" lon="7.37827">
        <ele>246</ele>
        <time>2017-02-03T22:40:53Z</time>
      </trkpt>
      <trkpt lat="43.78956" lon="7.37824">
        <ele>249</ele>
        <time>2017-02-03T22:42:53Z</time>
      </trkpt>
      <trkpt lat="43.78937" lon="7.37847">
        <ele>256</ele>
        <time>2017-02-03T22:44:53Z</time>
      </trkpt>
      <trkpt lat="43.78928" lon="7.37861">
        <ele>260</ele>
        <time>2017-02-03T22:46:53Z</time>
      </trkpt>
      <trkpt lat="43.78921" lon="7.37862">
        <ele>261</ele>
        <time>2017-02-03T22:48:53Z</time>
      </trkpt>
      <trkpt lat="43.78905" lon="7.37861">
        <ele>264</ele>
        <time>2017-02-03T22:50:53Z</time>
      </trkpt>
      <trkpt lat="43.78905" lon="7.37862">
        <ele>264</ele>
        <time>2017-02-03T22:52:53Z</time>
      </trkpt>
      <trkpt lat="43.78911" lon="7.37856">
        <ele>262</ele>
        <time>2017-02-03T22:54:53Z</time>
      </trkpt>
      <trkpt lat="43.78913" lon="7.37836">
        <ele>258</ele>
        <time>2017-02-03T22:56:53Z</time>
      </trkpt>
      <trkpt lat="43.78805" lon="7.3792">
        <ele>287</ele>
        <time>2017-02-03T22:58:53Z</time>
      </trkpt>
      <trkpt lat="43.78689" lon="7.38061">
        <ele>334</ele>
        <time>2017-02-03T23:00:53Z</time>
      </trkpt>
      <trkpt lat="43.78655" lon="7.38041">
        <ele>337</ele>
        <time>2017-02-03T23:02:53Z</time>
      </trkpt>
      <trkpt lat="43.78638" lon="7.3804">
        <ele>341</ele>
        <time>2017-02-03T23:04:53Z</time>
      </trkpt>
      <trkpt lat="43.78624" lon="7.37999">
        <ele>333</ele>
        <time>2017-02-03T23:06:53Z</time>
      </trkpt>
      <trkpt lat="43.78526" lon="7.37928">
        <ele>346</ele>
        <time>2017-02-03T23:08:53Z</time>
      </trkpt>
      <trkpt lat="43.78353" lon="7.37924">
        <ele>378</ele>
        <time>2017-02-03T23:10:53Z</time>
      </trkpt>
      <trkpt lat="43.78287" lon="7.37943">
        <ele>392</ele>
        <time>2017-02-03T23:12:53Z</time>
      </trkpt>
      <trkpt lat="43.78286" lon="7.37943">
        <ele>393</ele>
        <time>2017-02-03T23:14:53Z</time>
      </trkpt>
      <trkpt lat="43.78278" lon="7.37947">
        <ele>395</ele>
        <time>2017-02-03T23:16:53Z</time>
      </trkpt>
      <trkpt lat="43.78222" lon="7.37956">
        <ele>410</ele>
        <time>2017-02-03T23:18:53Z</time>
      </trkpt>
      <trkpt lat="43.78173" lon="7.37895">
        <ele>405</ele>
        <time>2017-02-03T23:20:53Z</time>
      </trkpt>
      <trkpt lat="43.78168" lon="7.37893">
        <ele>406</ele>
        <time>2017-02-03T23:22:53Z</time>
      </trkpt>
      <trkpt lat="43.78161" lon="7.37886">
        <ele>405</ele>
        <time>2017-02-03T23:24:53Z</time>
      </trkpt>
      <trkpt lat="43.7815" lon="7.37881">
        <ele>406</ele>
        <time>2017-02-03T23:26:53Z</time>
      </trkpt>
      <trkpt lat="43.78143" lon="7.37877">
        <ele>407</ele>
        <time>2017-02-03T23:28:53Z</time>
      </trkpt>
      <trkpt lat="43.78127" lon="7.37872">
        <ele>409</ele>
        <time>2017-02-03T23:30:53Z</time>
      </trkpt>
      <trkpt lat="43.78111" lon="7.37873">
        <ele>414</ele>
        <time>2017-02-03T23:32:53Z</time>
      </trkpt>
      <trkpt lat="43.7805" lon="7.37864">
        <ele>420</ele>
        <time>2017-02-03T23:34:53Z</time>
      </trkpt>
      <trkpt lat="43.78034" lon="7.37858">
        <ele>419</ele>
        <time>2017-02-03T23:36:53Z</time>
      </trkpt>
      <trkpt lat="43.78013" lon="7.37848">
        <ele>418</ele>
        <time>2017-02-03T23:38:53Z</time>
      </trkpt>
      <trkpt lat="43.77996" lon="7.37857">
        <ele>422</ele>
        <time>2017-02-03T23:40:53Z</time>
      </trkpt>
      <trkpt lat="43.77976" lon="7.37896">
        <ele>426</ele>
        <time>2017-02-03T23:42:53Z</time>
      </trkpt>
      <trkpt lat="43.77979" lon="7.3792">
        <ele>429</ele>
        <time>2017-02-03T23:44:53Z</time>
      </trkpt>
      <trkpt lat="43.77981" lon="7.3793">
        <ele>428</ele>
        <time>2017-02-03T23:46:53Z</time>
      </trkpt>
      <trkpt lat="43.77981" lon="7.3794">
        <ele>428</ele>
        <time>2017-02-03T23:48:53Z</time>
      </trkpt>
      <trkpt lat="43.77984" lon="7.37965">
        <ele>427</ele>
        <time>2017-02-03T23:50:53Z</time>
      </trkpt>
      <trkpt lat="43.77981" lon="7.37989">
        <ele>423</ele>
        <time>2017-02-03T23:52:53Z</time>
      </trkpt>
      <trkpt lat="43.77966" lon="7.38024">
        <ele>412</ele>
        <time>2017-02-03T23:54:53Z</time>
      </trkpt>
      <trkpt lat="43.77973" lon="7.38091">
        <ele>410</ele>
        <time>2017-02-03T23:56:53Z</time>
      </trkpt>
      <trkpt lat="43.77978" lon="7.38096">
        <ele>412</ele>
        <time>2017-02-03T23:58:53Z</time>
      </trkpt>
      <trkpt lat="43.77985" lon="7.38106">
        <ele>416</ele>
        <time>2017-02-04T00:00:53Z</time>
      </trkpt>
      <trkpt lat="43.77991" lon="7.38113">
        <ele>419</ele>
        <time>2017-02-04T00:02:53Z</time>
      </trkpt>
      <trkpt lat="43.77996" lon="7.38121">
        <ele>422</ele>
        <time>2017-02-04T00:04:53Z</time>
      </trkpt>
      <trkpt lat="43.77997" lon="7.38129">
        <ele>422</ele>
        <time>2017-02-04T00:06:53Z</time>
      </trkpt>
      <trkpt lat="43.77994" lon="7.38141">
        <ele>420</ele>
        <time>2017-02-04T00:08:53Z</time>
      </trkpt>
      <trkpt lat="43.77993" lon="7.38152">
        <ele>419</ele>
        <time>2017-02-04T00:10:53Z</time>
      </trkpt>
      <trkpt lat="43.77992" lon="7.38156">
        <ele>418</ele>
        <time>2017-02-04T00:12:53Z</time>
      </trkpt>
      <trkpt lat="43.77988" lon="7.38169">
        <ele>416</ele>
        <time>2017-02-04T00:14:53Z</time>
      </trkpt>
      <trkpt lat="43.77991" lon="7.38179">
        <ele>417</ele>
        <time>2017-02-04T00:16:53Z</time>
      </trkpt>
      <trkpt lat="43.77987" lon="7.3819">
        <ele>414</ele>
        <time>2017-02-04T00:18:53Z</time>
      </trkpt>
      <trkpt lat="43.7798" lon="7.38203">
        <ele>411</ele>
        <time>2017-02-04T00:20:53Z</time>
      </trkpt>
      <trkpt lat="43.77981" lon="7.38221">
        <ele>410</ele>
        <time>2017-02-04T00:22:53Z</time>
      </trkpt>
      <trkpt lat="43.77982" lon="7.38218">
        <ele>411</ele>
        <time>2017-02-04T00:24:53Z</time>
      </trkpt>
      <trkpt lat="43.77983" lon="7.38224">
        <ele>411</ele>
        <time>2017-02-04T00:26:53Z</time>
      </trkpt>
      <trkpt lat="43.77986" lon="7.38228">
        <ele>412</ele>
        <time>2017-02-04T00:28:53Z</time>
      </trkpt>
      <trkpt lat="43.77972" lon="7.38234">
        <ele>406</ele>
        <time>2017-02-04T00:30:53Z</time>
      </trkpt>
      <trkpt lat="43.77977" lon="7.38243">
        <ele>408</ele>
        <time>2017-02-04T00:32:53Z</time>
      </trkpt>
      <trkpt lat="43.77983" lon="7.38258">
        <ele>409</ele>
        <time>2017-02-04T00:34:53Z</time>
      </trkpt>
      <trkpt lat="43.77989" lon="7.3827">
        <ele>410</ele>
        <time>2017-02-04T00:36:53Z</time>
      </trkpt>
      <trkpt lat="43.77995" lon="7.38268">
        <ele>412</ele>
        <time>2017-02-04T00:38:53Z</time>
      </trkpt>
      <trkpt lat="43.77993" lon="7.38272">
        <ele>411</ele>
        <time>2017-02-04T00:40:53Z</time>
      </trkpt>
      <trkpt lat="43.77987" lon="7.38277">
        <ele>409</ele>
        <time>2017-02-04T00:42:53Z</time>
      </trkpt>
      <trkpt lat="43.77986" lon="7.38274">
        <ele>409</ele>
        <time>2017-02-04T00:44:53Z</time>
      </trkpt>
      <trkpt lat="43.77984" lon="7.38272">
        <ele>408</ele>
        <time>2017-02-04T00:46:53Z</time>
      </trkpt>
      <trkpt lat="43.77986" lon="7.38283">
        <ele>408</ele>
        <time>2017-02-04T00:48:53Z</time>
      </trkpt>
      <trkpt lat="43.7798" lon="7.38286">
        <ele>406</ele>
        <time>2017-02-04T00:50:53Z</time>
      </trkpt>
      <trkpt lat="43.77972" lon="7.38289">
        <ele>403</ele>
        <time>2017-02-04T00:52:53Z</time>
      </trkpt>
      <trkpt lat="43.77963" lon="7.38294">
        <ele>399</ele>
        <time>2017-02-04T00:54:53Z</time>
      </trkpt>
      <trkpt lat="43.77959" lon="7.38302">
        <ele>397</ele>
        <time>2017-02-04T00:56:53Z</time>
      </trkpt>
      <trkpt lat="43.77963" lon="7.38305">
        <ele>398</ele>
        <time>2017-02-04T00:58:53Z</time>
      </trkpt>
      <trkpt lat="43.77959" lon="7.38313">
        <ele>396</ele>
        <time>2017-02-04T01:00:53Z</time>
      </trkpt>
      <trkpt lat="43.77959" lon="7.38326">
        <ele>395</ele>
        <time>2017-02-04T01:02:53Z</time>
      </trkpt>
      <trkpt lat="43.77958" lon="7.38329">
        <ele>395</ele>
        <time>2017-02-04T01:04:53Z</time>
      </trkpt>
      <trkpt lat="43.77956" lon="7.38331">
        <ele>394</ele>
        <time>2017-02-04T01:06:53Z</time>
      </trkpt>
      <trkpt lat="43.77947" lon="7.38347">
        <ele>389</ele>
        <time>2017-02-04T01:08:53Z</time>
      </trkpt>
      <trkpt lat="43.77946" lon="7.38361">
        <ele>387</ele>
        <time>2017-02-04T01:10:53Z</time>
      </trkpt>
      <trkpt lat="43.77956" lon="7.38354">
        <ele>392</ele>
        <time>2017-02-04T01:12:53Z</time>
      </trkpt>
      <trkpt lat="43.77963" lon="7.38371">
        <ele>395</ele>
        <time>2017-02-04T01:14:53Z</time>
      </trkpt>
      <trkpt lat="43.77964" lon="7.38377">
        <ele>395</ele>
        <time>2017-02-04T01:16:53Z</time>
      </trkpt>
      <trkpt lat="43.77971" lon="7.384">
        <ele>399</ele>
        <time>2017-02-04T01:18:53Z</time>
      </trkpt>
      <trkpt lat="43.77973" lon="7.38413">
        <ele>400</ele>
        <time>2017-02-04T01:20:53Z</time>
      </trkpt>
      <trkpt lat="43.7801" lon="7.38493">
        <ele>424</ele>
        <time>2017-02-04T01:22:53Z</time>
      </trkpt>
      <trkpt lat="43.78075" lon="7.3882">
        <ele>454</ele>
        <time>2017-02-04T01:24:53Z</time>
      </trkpt>
      <trkpt lat="43.78056" lon="7.3893">
        <ele>465</ele>
        <time>2017-02-04T01:26:53Z</time>
      </trkpt>
      <trkpt lat="43.78048" lon="7.38934">
        <ele>465</ele>
        <time>2017-02-04T01:28:53Z</time>
      </trkpt>
      <trkpt lat="43.78054" lon="7.38961">
        <ele>469</ele>
        <time>2017-02-04T01:30:53Z</time>
      </trkpt>
      <trkpt lat="43.78046" lon="7.3901">
        <ele>474</ele>
        <time>2017-02-04T01:32:53Z</time>
      </trkpt>
      <trkpt lat="43.78029" lon="7.39044">
        <ele>474</ele>
        <time>2017-02-04T01:34:53Z</time>
      </trkpt>
      <trkpt lat="43.78034" lon="7.39063">
        <ele>479</ele>
        <time>2017-02-04T01:36:53Z</time>
      </trkpt>
      <trkpt lat="43.78034" lon="7.391">
        <ele>483</ele>
        <time>2017-02-04T01:38:53Z</time>
      </trkpt>
      <trkpt lat="43.78108" lon="7.39204">
        <ele>515</ele>
        <time>2017-02-04T01:40:53Z</time>
      </trkpt>
      <trkpt lat="43.7811" lon="7.39225">
        <ele>512</ele>
        <time>2017-02-04T01:42:53Z</time>
      </trkpt>
      <trkpt lat="43.78144" lon="7.39337">
        <ele>515</ele>
        <time>2017-02-04T01:44:53Z</time>
      </trkpt>
      <trkpt lat="43.78156" lon="7.39371">
        <ele>515</ele>
        <time>2017-02-04T01:46:53Z</time>
      </trkpt>
      <trkpt lat="43.78151" lon="7.39399">
        <ele>516</ele>
        <time>2017-02-04T01:48:53Z</time>
      </trkpt>
      <trkpt lat="43.78162" lon="7.39412">
        <ele>513</ele>
        <time>2017-02-04T01:50:53Z</time>
      </trkpt>
      <trkpt lat="43.78225" lon="7.39472">
        <ele>527</ele>
        <time>2017-02-04T01:52:53Z</time>
      </trkpt>
      <trkpt lat="43.78237" lon="7.39485">
        <ele>526</ele>
        <time>2017-02-04T01:54:53Z</time>
      </trkpt>
      <trkpt lat="43.78237" lon="7.39502">
        <ele>526</ele>
        <time>2017-02-04T01:56:53Z</time>
      </trkpt>
      <trkpt lat="43.7824" lon="7.39514">
        <ele>529</ele>
        <time>2017-02-04T01:58:53Z</time>
      </trkpt>
      <trkpt lat="43.78289" lon="7.39568">
        <ele>545</ele>
        <time>2017-02-04T02:00:53Z</time>
      </trkpt>
      <trkpt lat="43.78312" lon="7.39618">
        <ele>547</ele>
        <time>2017-02-04T02:02:53Z</time>
      </trkpt>
      <trkpt lat="43.7831" lon="7.3965">
        <ele>549</ele>
        <time>2017-02-04T02:04:53Z</time>
      </trkpt>
      <trkpt lat="43.78309" lon="7.39654">
        <ele>549</ele>
        <time>2017-02-04T02:06:53Z</time>
      </trkpt>
      <trkpt lat="43.78312" lon="7.39675">
        <ele>551</ele>
        <time>2017-02-04T02:08:53Z</time>
      </trkpt>
      <trkpt lat="43.78318" lon="7.3969">
        <ele>552</ele>
        <time>2017-02-04T02:10:53Z</time>
      </trkpt>
      <trkpt lat="43.78336" lon="7.39712">
        <ele>551</ele>
        <time>2017-02-04T02:12:53Z</time>
      </trkpt>
      <trkpt lat="43.78345" lon="7.3973">
        <ele>554</ele>
        <time>2017-02-04T02:14:53Z</time>
      </trkpt>
      <trkpt lat="43.78379" lon="7.39747">
        <ele>555</ele>
        <time>2017-02-04T02:16:53Z</time>
      </trkpt>
      <trkpt lat="43.78425" lon="7.39754">
        <ele>557</ele>
        <time>2017-02-04T02:18:53Z</time>
      </trkpt>
      <trkpt lat="43.78433" lon="7.39768">
        <ele>562</ele>
        <time>2017-02-04T02:20:53Z</time>
      </trkpt>
      <trkpt lat="43.78437" lon="7.39796">
        <ele>566</ele>
        <time>2017-02-04T02:22:53Z</time>
      </trkpt>
      <trkpt lat="43.7844" lon="7.39814">
        <ele>569</ele>
        <time>2017-02-04T02:24:53Z</time>
      </trkpt>
      <trkpt lat="43.78442" lon="7.39834">
        <ele>571</ele>
        <time>2017-02-04T02:26:53Z</time>
      </trkpt>
      <trkpt lat="43.78435" lon="7.39857">
        <ele>573</ele>
        <time>2017-02-04T02:28:53Z</time>
      </trkpt>
      <trkpt lat="43.78431" lon="7.39874">
        <ele>575</ele>
        <time>2017-02-04T02:30:53Z</time>
      </trkpt>
      <trkpt lat="43.7843" lon="7.39904">
        <ele>580</ele>
        <time>2017-02-04T02:32:53Z</time>
      </trkpt>
      <trkpt lat="43.78442" lon="7.3993">
        <ele>581</ele>
        <time>2017-02-04T02:34:53Z</time>
      </trkpt>
      <trkpt lat="43.78444" lon="7.39959">
        <ele>580</ele>
        <time>2017-02-04T02:36:53Z</time>
      </trkpt>
      <trkpt lat="43.7844" lon="7.39925">
        <ele>581</ele>
        <time>2017-02-04T02:38:53Z</time>
      </trkpt>
      <trkpt lat="43.78441" lon="7.3992">
        <ele>581</ele>
        <time>2017-02-04T02:40:53Z</time>
      </trkpt>
      <trkpt lat="43.78421" lon="7.39926">
        <ele>583</ele>
        <time>2017-02-04T02:42:53Z</time>
      </trkpt>
      <trkpt lat="43.78421" lon="7.39923">
        <ele>583</ele>
        <time>2017-02-04T02:44:53Z</time>
      </trkpt>
      <trkpt lat="43.78414" lon="7.39906">
        <ele>583</ele>
        <time>2017-02-04T02:46:53Z</time>
      </trkpt>
      <trkpt lat="43.78409" lon="7.39892">
        <ele>581</ele>
        <time>2017-02-04T02:48:53Z</time>
      </trkpt>
      <trkpt lat="43.78408" lon="7.39875">
        <ele>578</ele>
        <time>2017-02-04T02:50:53Z</time>
      </trkpt>
      <trkpt lat="43.78406" lon="7.39873">
        <ele>578</ele>
        <time>2017-02-04T02:52:53Z</time>
      </trkpt>
      <trkpt lat="43.78406" lon="7.39864">
        <ele>576</ele>
        <time>2017-02-04T02:54:53Z</time>
      </trkpt>
      <trkpt lat="43.78398" lon="7.39853">
        <ele>576</ele>
        <time>2017-02-04T02:56:53Z</time>
      </trkpt>
      <trkpt lat="43.78396" lon="7.39852">
        <ele>576</ele>
        <time>2017-02-04T02:58:53Z</time>
      </trkpt>
      <trkpt lat="43.7839" lon="7.39847">
        <ele>576</ele>
        <time>2017-02-04T03:00:53Z</time>
      </trkpt>
      <trkpt lat="43.78372" lon="7.39821">
        <ele>574</ele>
        <time>2017-02-04T03:02:53Z</time>
      </trkpt>
      <trkpt lat="43.78362" lon="7.39822">
        <ele>577</ele>
        <time>2017-02-04T03:04:53Z</time>
      </trkpt>
      <trkpt lat="43.78358" lon="7.3983">
        <ele>580</ele>
        <time>2017-02-04T03:06:53Z</time>
      </trkpt>
      <trkpt lat="43.78348" lon="7.39831">
        <ele>583</ele>
        <time>2017-02-04T03:08:53Z</time>
      </trkpt>
      <trkpt lat="43.78328" lon="7.39846">
        <ele>593</ele>
        <time>2017-02-04T03:10:53Z</time>
      </trkpt>
      <trkpt lat="43.78331" lon="7.39847">
        <ele>593</ele>
        <time>2017-02-04T03:12:53Z</time>
      </trkpt>
      <trkpt lat="43.78336" lon="7.39853">
        <ele>593</ele>
        <time>2017-02-04T03:14:53Z</time>
      </trkpt>
      <trkpt lat="43.7834" lon="7.39857">
        <ele>593</ele>
        <time>2017-02-04T03:16:53Z</time>
      </trkpt>
      <trkpt lat="43.78334" lon="7.39859">
        <ele>596</ele>
        <time>2017-02-04T03:18:53Z</time>
      </trkpt>
      <trkpt lat="43.78322" lon="7.39841">
        <ele>593</ele>
        <time>2017-02-04T03:20:53Z</time>
      </trkpt>
      <trkpt lat="43.78322" lon="7.39831">
        <ele>590</ele>
        <time>2017-02-04T03:22:53Z</time>
      </trkpt>
      <trkpt lat="43.78363" lon="7.39842">
        <ele>583</ele>
        <time>2017-02-04T03:24:53Z</time>
      </trkpt>
      <trkpt lat="43.78419" lon="7.39907">
        <ele>582</ele>
        <time>2017-02-04T03:26:53Z</time>
      </trkpt>
      <trkpt lat="43.78439" lon="7.39947">
        <ele>581</ele>
        <time>2017-02-04T03:28:53Z</time>
      </trkpt>
      <trkpt lat="43.7844" lon="7.39922">
        <ele>581</ele>
        <time>2017-02-04T03:30:53Z</time>
      </trkpt>
      <trkpt lat="43.78459" lon="7.3993">
        <ele>579</ele>
        <time>2017-02-04T03:32:53Z</time>
      </trkpt>
      <trkpt lat="43.7846" lon="7.39954">
        <ele>579</ele>
        <time>2017-02-04T03:34:53Z</time>
      </trkpt>
      <trkpt lat="43.7845" lon="7.39969">
        <ele>580</ele>
        <time>2017-02-04T03:36:53Z</time>
      </trkpt>
      <trkpt lat="43.78465" lon="7.39986">
        <ele>578</ele>
        <time>2017-02-04T03:38:53Z</time>
      </trkpt>
      <trkpt lat="43.78561" lon="7.39977">
        <ele>591</ele>
        <time>2017-02-04T03:40:53Z</time>
      </trkpt>
      <trkpt lat="43.78638" lon="7.40003">
        <ele>604</ele>
        <time>2017-02-04T03:42:53Z</time>
      </trkpt>
      <trkpt lat="43.78671" lon="7.40014">
        <ele>611</ele>
        <time>2017-02-04T03:44:53Z</time>
      </trkpt>
      <trkpt lat="43.78705" lon="7.40023">
        <ele>614</ele>
        <time>2017-02-04T03:46:53Z</time>
      </trkpt>
      <trkpt lat="43.78711" lon="7.40038">
        <ele>614</ele>
        <time>2017-02-04T03:48:53Z</time>
      </trkpt>
      <trkpt lat="43.78714" lon="7.40055">
        <ele>615</ele>
        <time>2017-02-04T03:50:53Z</time>
      </trkpt>
      <trkpt lat="43.78731" lon="7.40075">
        <ele>616</ele>
        <time>2017-02-04T03:52:53Z</time>
      </trkpt>
      <trkpt lat="43.78739" lon="7.4007">
        <ele>617</ele>
        <time>2017-02-04T03:54:53Z</time>
      </trkpt>
      <trkpt lat="43.78799" lon="7.40086">
        <ele>624</ele>
        <time>2017-02-04T03:56:53Z</time>
      </trkpt>
      <trkpt lat="43.78808" lon="7.4009">
        <ele>625</ele>
        <time>2017-02-04T03:58:53Z</time>
      </trkpt>
      <trkpt lat="43.78822" lon="7.40092">
        <ele>627</ele>
        <time>2017-02-04T04:00:53Z</time>
      </trkpt>
      <trkpt lat="43.78873" lon="7.40078">
        <ele>632</ele>
        <time>2017-02-04T04:02:53Z</time>
      </trkpt>
      <trkpt lat="43.78899" lon="7.40097">
        <ele>637</ele>
        <time>2017-02-04T04:04:53Z</time>
      </trkpt>
      <trkpt lat="43.78902" lon="7.401">
        <ele>637</ele>
        <time>2017-02-04T04:06:53Z</time>
      </trkpt>
      <trkpt lat="43.78907" lon="7.40109">
        <ele>639</ele>
        <time>2017-02-04T04:08:53Z</time>
      </trkpt>
      <trkpt lat="43.789" lon="7.40125">
        <ele>640</ele>
        <time>2017-02-04T04:10:53Z</time>
      </trkpt>
      <trkpt lat="43.78897" lon="7.40128">
        <ele>639</ele>
        <time>2017-02-04T04:12:53Z</time>
      </trkpt>
      <trkpt lat="43.78895" lon="7.40137">
        <ele>640</ele>
        <time>2017-02-04T04:14:53Z</time>
      </trkpt>
      <trkpt lat="43.789" lon="7.40141">
        <ele>641</ele>
        <time>2017-02-04T04:16:53Z</time>
      </trkpt>
      <trkpt lat="43.78907" lon="7.40143">
        <ele>643</ele>
        <time>2017-02-04T04:18:53Z</time>
      </trkpt>
      <trkpt lat="43.78909" lon="7.40145">
        <ele>643</ele>
        <time>2017-02-04T04:20:53Z</time>
      </trkpt>
      <trkpt lat="43.78917" lon="7.40146">
        <ele>645</ele>
        <time>2017-02-04T04:22:53Z</time>
      </trkpt>
      <trkpt lat="43.7892" lon="7.40155">
        <ele>646</ele>
        <time>2017-02-04T04:24:53Z</time>
      </trkpt>
      <trkpt lat="43.78927" lon="7.4017">
        <ele>649</ele>
        <time>2017-02-04T04:26:53Z</time>
      </trkpt>
      <trkpt lat="43.78936" lon="7.40173">
        <ele>651</ele>
        <time>2017-02-04T04:28:53Z</time>
      </trkpt>
      <trkpt lat="43.78953" lon="7.40172">
        <ele>654</ele>
        <time>2017-02-04T04:30:53Z</time>
      </trkpt>
      <trkpt lat="43.78961" lon="7.40176">
        <ele>656</ele>
        <time>2017-02-04T04:32:53Z</time>
      </trkpt>
      <trkpt lat="43.78972" lon="7.4017">
        <ele>657</ele>
        <time>2017-02-04T04:34:53Z</time>
      </trkpt>
      <trkpt lat="43.78979" lon="7.40168">
        <ele>658</ele>
        <time>2017-02-04T04:36:53Z</time>
      </trkpt>
      <trkpt lat="43.78985" lon="7.40162">
        <ele>659</ele>
        <time>2017-02-04T04:38:53Z</time>
      </trkpt>
      <trkpt lat="43.7899" lon="7.40154">
        <ele>659</ele>
        <time>2017-02-04T04:40:53Z</time>
      </trkpt>
      <trkpt lat="43.78992" lon="7.40146">
        <ele>658</ele>
        <time>2017-02-04T04:42:53Z</time>
      </trkpt>
      <trkpt lat="43.79002" lon="7.40154">
        <ele>661</ele>
        <time>2017-02-04T04:44:53Z</time>
      </trkpt>
      <trkpt lat="43.79005" lon="7.40151">
        <ele>661</ele>
        <time>2017-02-04T04:46:53Z</time>
      </trkpt>
      <trkpt lat="43.79008" lon="7.40145">
        <ele>661</ele>
        <time>2017-02-04T04:48:53Z</time>
      </trkpt>
      <trkpt lat="43.79019" lon="7.40137">
        <ele>662</ele>
        <time>2017-02-04T04:50:53Z</time>
      </trkpt>
      <trkpt lat="43.79021" lon="7.40131">
        <ele>661</ele>
        <time>2017-02-04T04:52:53Z</time>
      </trkpt>
      <trkpt lat="43.79025" lon="7.40132">
        <ele>662</ele>
        <time>2017-02-04T04:54:53Z</time>
      </trkpt>
      <trkpt lat="43.79036" lon="7.40132">
        <ele>664</ele>
        <time>2017-02-04T04:56:53Z</time>
      </trkpt>
      <trkpt lat="43.79047" lon="7.40126">
        <ele>665</ele>
        <time>2017-02-04T04:58:53Z</time>
      </trkpt>
      <trkpt lat="43.79054" lon="7.40124">
        <ele>665</ele>
        <time>2017-02-04T05:00:53Z</time>
      </trkpt>
      <trkpt lat="43.79063" lon="7.4012">
        <ele>666</ele>
        <time>2017-02-04T05:02:53Z</time>
      </trkpt>
      <trkpt lat="43.79071" lon="7.40113">
        <ele>666</ele>
        <time>2017-02-04T05:04:53Z</time>
      </trkpt>
      <trkpt lat="43.79089" lon="7.40111">
        <ele>668</ele>
        <time>2017-02-04T05:06:53Z</time>
      </trkpt>
      <trkpt lat="43.79107" lon="7.40108">
        <ele>669</ele>
        <time>2017-02-04T05:08:53Z</time>
      </trkpt>
      <trkpt lat="43.79118" lon="7.40103">
        <ele>669</ele>
        <time>2017-02-04T05:10:53Z</time>
      </trkpt>
      <trkpt lat="43.79144" lon="7.40099">
        <ele>671</ele>
        <time>2017-02-04T05:12:53Z</time>
      </trkpt>
      <trkpt lat="43.79149" lon="7.40094">
        <ele>670</ele>
        <time>2017-02-04T05:14:53Z</time>
      </trkpt>
      <trkpt lat="43.79155" lon="7.40092">
        <ele>670</ele>
        <time>2017-02-04T05:16:53Z</time>
      </trkpt>
      <trkpt lat="43.79157" lon="7.40092">
        <ele>670</ele>
        <time>2017-02-04T05:18:53Z</time>
      </trkpt>
      <trkpt lat="43.79165" lon="7.40088">
        <ele>670</ele>
        <time>2017-02-04T05:20:53Z</time>
      </trkpt>
      <trkpt lat="43.7917" lon="7.40087">
        <ele>671</ele>
        <time>2017-02-04T05:22:53Z</time>
      </trkpt>
      <trkpt lat="43.79174" lon="7.40084">
        <ele>671</ele>
        <time>2017-02-04T05:24:53Z</time>
      </trkpt>
      <trkpt lat="43.79184" lon="7.40081">
        <ele>672</ele>
        <time>2017-02-04T05:26:53Z</time>
      </trkpt>
      <trkpt lat="43.79186" lon="7.4008">
        <ele>672</ele>
        <time>2017-02-04T05:28:53Z</time>
      </trkpt>
      <trkpt lat="43.79194" lon="7.40072">
        <ele>673</ele>
        <time>2017-02-04T05:30:53Z</time>
      </trkpt>
      <trkpt lat="43.79208" lon="7.40059">
        <ele>674</ele>
        <time>2017-02-04T05:32:53Z</time>
      </trkpt>
      <trkpt lat="43.7922" lon="7.40048">
        <ele>674</ele>
        <time>2017-02-04T05:34:53Z</time>
      </trkpt>
      <trkpt lat="43.79221" lon="7.40047">
        <ele>674</ele>
        <time>2017-02-04T05:36:53Z</time>
      </trkpt>
      <trkpt lat="43.79237" lon="7.40037">
        <ele>675</ele>
        <time>2017-02-04T05:38:53Z</time>
      </trkpt>
      <trkpt lat="43.79248" lon="7.40026">
        <ele>675</ele>
        <time>2017-02-04T05:40:53Z</time>
      </trkpt>
      <trkpt lat="43.79258" lon="7.40018">
        <ele>675</ele>
        <time>2017-02-04T05:42:53Z</time>
      </trkpt>
      <trkpt lat="43.79263" lon="7.40024">
        <ele>677</ele>
        <time>2017-02-04T05:44:53Z</time>
      </trkpt>
      <trkpt lat="43.79255" lon="7.40035">
        <ele>678</ele>
        <time>2017-02-04T05:46:53Z</time>
      </trkpt>
      <trkpt lat="43.79243" lon="7.40049">
        <ele>679</ele>
        <time>2017-02-04T05:48:53Z</time>
      </trkpt>
      <trkpt lat="43.79243" lon="7.4005">
        <ele>679</ele>
        <time>2017-02-04T05:50:53Z</time>
      </trkpt>
      <trkpt lat="43.79237" lon="7.40055">
        <ele>678</ele>
        <time>2017-02-04T05:52:53Z</time>
      </trkpt>
      <trkpt lat="43.79236" lon="7.40057">
        <ele>679</ele>
        <time>2017-02-04T05:54:53Z</time>
      </trkpt>
      <trkpt lat="43.79232" lon="7.40064">
        <ele>679</ele>
        <time>2017-02-04T05:56:53Z</time>
      </trkpt>
      <trkpt lat="43.7923" lon="7.40066">
        <ele>679</ele>
        <time>2017-02-04T05:58:53Z</time>
      </trkpt>
      <trkpt lat="43.79229" lon="7.40068">
        <ele>679</ele>
        <time>2017-02-04T06:00:53Z</time>
      </trkpt>
      <trkpt lat="43.7922" lon="7.40079">
        <ele>679</ele>
        <time>2017-02-04T06:02:53Z</time>
      </trkpt>
      <trkpt lat="43.79212" lon="7.40092">
        <ele>681</ele>
        <time>2017-02-04T06:04:53Z</time>
      </trkpt>
      <trkpt lat="43.79205" lon="7.401">
        <ele>681</ele>
        <time>2017-02-04T06:06:53Z</time>
      </trkpt>
      <trkpt lat="43.79195" lon="7.40115">
        <ele>683</ele>
        <time>2017-02-04T06:08:53Z</time>
      </trkpt>
      <trkpt lat="43.79189" lon="7.40125">
        <ele>685</ele>
        <time>2017-02-04T06:10:53Z</time>
      </trkpt>
      <trkpt lat="43.79181" lon="7.4013">
        <ele>684</ele>
        <time>2017-02-04T06:12:53Z</time>
      </trkpt>
      <trkpt lat="43.79176" lon="7.40136">
        <ele>685</ele>
        <time>2017-02-04T06:14:53Z</time>
      </trkpt>
      <trkpt lat="43.7917" lon="7.40146">
        <ele>686</ele>
        <time>2017-02-04T06:16:53Z</time>
      </trkpt>
      <trkpt lat="43.79167" lon="7.40149">
        <ele>686</ele>
        <time>2017-02-04T06:18:53Z</time>
      </trkpt>
      <trkpt lat="43.79163" lon="7.4015">
        <ele>686</ele>
        <time>2017-02-04T06:20:53Z</time>
      </trkpt>
      <trkpt lat="43.79166" lon="7.40155">
        <ele>688</ele>
        <time>2017-02-04T06:22:53Z</time>
      </trkpt>
      <trkpt lat="43.79171" lon="7.4015">
        <ele>687</ele>
        <time>2017-02-04T06:24:53Z</time>
      </trkpt>
      <trkpt lat="43.7918" lon="7.40148">
        <ele>689</ele>
        <time>2017-02-04T06:26:53Z</time>
      </trkpt>
      <trkpt lat="43.7918" lon="7.40148">
        <ele>689</ele>
        <time>2017-02-04T06:28:53Z</time>
      </trkpt>
      <trkpt lat="43.7919" lon="7.4015">
        <ele>691</ele>
        <time>2017-02-04T06:30:53Z</time>
      </trkpt>
      <trkpt lat="43.79198" lon="7.4015">
        <ele>693</ele>
        <time>2017-02-04T06:32:53Z</time>
      </trkpt>
      <trkpt lat="43.79206" lon="7.40142">
        <ele>693</ele>
        <time>2017-02-04T06:34:53Z</time>
      </trkpt>
      <trkpt lat="43.79213" lon="7.40138">
        <ele>693</ele>
        <time>2017-02-04T06:36:53Z</time>
      </trkpt>
      <trkpt lat="43.79241" lon="7.40136">
        <ele>698</ele>
        <time>2017-02-04T06:38:53Z</time>
      </trkpt>
      <trkpt lat="43.79247" lon="7.40141">
        <ele>701</ele>
        <time>2017-02-04T06:40:53Z</time>
      </trkpt>
      <trkpt lat="43.79255" lon="7.40149">
        <ele>704</ele>
        <time>2017-02-04T06:42:53Z</time>
      </trkpt>
      <trkpt lat="43.79265" lon="7.40152">
        <ele>706</ele>
        <time>2017-02-04T06:44:53Z</time>
      </trkpt>
      <trkpt lat="43.79271" lon="7.40151">
        <ele>707</ele>
        <time>2017-02-04T06:46:53Z</time>
      </trkpt>
      <trkpt lat="43.79271" lon="7.40149">
        <ele>706</ele>
        <time>2017-02-04T06:48:53Z</time>
      </trkpt>
      <trkpt lat="43.79277" lon="7.40149">
        <ele>707</ele>
        <time>2017-02-04T06:50:53Z</time>
      </trkpt>
      <trkpt lat="43.79286" lon="7.4015">
        <ele>708</ele>
        <time>2017-02-04T06:52:53Z</time>
      </trkpt>
      <trkpt lat="43.79288" lon="7.40148">
        <ele>708</ele>
        <time>2017-02-04T06:54:53Z</time>
      </trkpt>
      <trkpt lat="43.79295" lon="7.40147">
        <ele>709</ele>
        <time>2017-02-04T06:56:53Z</time>
      </trkpt>
      <trkpt lat="43.79303" lon="7.4016">
        <ele>713</ele>
        <time>2017-02-04T06:58:53Z</time>
      </trkpt>
      <trkpt lat="43.79306" lon="7.40142">
        <ele>709</ele>
        <time>2017-02-04T07:00:53Z</time>
      </trkpt>
      <trkpt lat="43.79309" lon="7.40138">
        <ele>708</ele>
        <time>2017-02-04T07:02:53Z</time>
      </trkpt>
      <trkpt lat="43.79321" lon="7.40131">
        <ele>708</ele>
        <time>2017-02-04T07:04:53Z</time>
      </trkpt>
      <trkpt lat="43.79329" lon="7.40128">
        <ele>709</ele>
        <time>2017-02-04T07:06:53Z</time>
      </trkpt>
      <trkpt lat="43.79342" lon="7.40144">
        <ele>709</ele>
        <time>2017-02-04T07:08:53Z</time>
      </trkpt>
      <trkpt lat="43.79402" lon="7.40249">
        <ele>712</ele>
        <time>2017-02-04T07:10:53Z</time>
      </trkpt>
      <trkpt lat="43.7942" lon="7.40285">
        <ele>715</ele>
        <time>2017-02-04T07:12:53Z</time>
      </trkpt>
      <trkpt lat="43.79428" lon="7.403">
        <ele>715</ele>
        <time>2017-02-04T07:14:53Z</time>
      </trkpt>
      <trkpt lat="43.79456" lon="7.40343">
        <ele>715</ele>
        <time>2017-02-04T07:16:53Z</time>
      </trkpt>
      <trkpt lat="43.79488" lon="7.40374">
        <ele>708</ele>
        <time>2017-02-04T07:18:53Z</time>
      </trkpt>
      <trkpt lat="43.79518" lon="7.40404">
        <ele>705</ele>
        <time>2017-02-04T07:20:53Z</time>
      </trkpt>
      <trkpt lat="43.79604" lon="7.40445">
        <ele>686</ele>
        <time>2017-02-04T07:22:53Z</time>
      </trkpt>
      <trkpt lat="43.79609" lon="7.40416">
        <ele>674</ele>
        <time>2017-02-04T07:24:53Z</time>
      </trkpt>
      <trkpt lat="43.79605" lon="7.40412">
        <ele>674</ele>
        <time>2017-02-04T07:26:53Z</time>
      </trkpt>
      <trkpt lat="43.79605" lon="7.40406">
        <ele>671</ele>
        <time>2017-02-04T07:28:53Z</time>
      </trkpt>
      <trkpt lat="43.79606" lon="7.40404">
        <ele>670</ele>
        <time>2017-02-04T07:30:53Z</time>
      </trkpt>
      <trkpt lat="43.79619" lon="7.40408">
        <ele>666</ele>
        <time>2017-02-04T07:32:53Z</time>
      </trkpt>
      <trkpt lat="43.79628" lon="7.40413">
        <ele>664</ele>
        <time>2017-02-04T07:34:53Z</time>
      </trkpt>
      <trkpt lat="43.79643" lon="7.40413">
        <ele>658</ele>
        <time>2017-02-04T07:36:53Z</time>
      </trkpt>
      <trkpt lat="43.79679" lon="7.40482">
        <ele>671</ele>
        <time>2017-02-04T07:38:53Z</time>
      </trkpt>
      <trkpt lat="43.79699" lon="7.40499">
        <ele>673</ele>
        <time>2017-02-04T07:40:53Z</time>
      </trkpt>
      <trkpt lat="43.79703" lon="7.40499">
        <ele>672</ele>
        <time>2017-02-04T07:42:53Z</time>
      </trkpt>
      <trkpt lat="43.79714" lon="7.405">
        <ele>670</ele>
        <time>2017-02-04T07:44:53Z</time>
      </trkpt>
      <trkpt lat="43.79719" lon="7.40501">
        <ele>670</ele>
        <time>2017-02-04T07:46:53Z</time>
      </trkpt>
      <trkpt lat="43.79731" lon="7.40499">
        <ele>666</ele>
        <time>2017-02-04T07:48:53Z</time>
      </trkpt>
      <trkpt lat="43.7974" lon="7.40491">
        <ele>660</ele>
        <time>2017-02-04T07:50:53Z</time>
      </trkpt>
      <trkpt lat="43.79756" lon="7.40499">
        <ele>661</ele>
        <time>2017-02-04T07:52:53Z</time>
      </trkpt>
      <trkpt lat="43.79765" lon="7.40503">
        <ele>663</ele>
        <time>2017-02-04T07:54:53Z</time>
      </trkpt>
      <trkpt lat="43.79778" lon="7.40515">
        <ele>670</ele>
        <time>2017-02-04T07:56:53Z</time>
      </trkpt>
      <trkpt lat="43.7979" lon="7.40524">
        <ele>674</ele>
        <time>2017-02-04T07:58:53Z</time>
      </trkpt>
      <trkpt lat="43.79798" lon="7.40527">
        <ele>675</ele>
        <time>2017-02-04T08:00:53Z</time>
      </trkpt>
      <trkpt lat="43.79806" lon="7.4052">
        <ele>671</ele>
        <time>2017-02-04T08:02:53Z</time>
      </trkpt>
      <trkpt lat="43.79811" lon="7.40519">
        <ele>670</ele>
        <time>2017-02-04T08:04:53Z</time>
      </trkpt>
      <trkpt lat="43.7983" lon="7.40507">
        <ele>664</ele>
        <time>2017-02-04T08:06:53Z</time>
      </trkpt>
      <trkpt lat="43.79831" lon="7.40506">
        <ele>664</ele>
        <time>2017-02-04T08:08:53Z</time>
      </trkpt>
      <trkpt lat="43.79839" lon="7.4049">
        <ele>655</ele>
        <time>2017-02-04T08:10:53Z</time>
      </trkpt>
      <trkpt lat="43.7984" lon="7.40489">
        <ele>654</ele>
        <time>2017-02-04T08:12:53Z</time>
      </trkpt>
      <trkpt lat="43.79853" lon="7.40489">
        <ele>653</ele>
        <time>2017-02-04T08:14:53Z</time>
      </trkpt>
      <trkpt lat="43.79865" lon="7.40495">
        <ele>654</ele>
        <time>2017-02-04T08:16:53Z</time>
      </trkpt>
      <trkpt lat="43.79877" lon="7.40503">
        <ele>657</ele>
        <time>2017-02-04T08:18:53Z</time>
      </trkpt>
      <trkpt lat="43.79878" lon="7.40504">
        <ele>658</ele>
        <time>2017-02-04T08:20:53Z</time>
      </trkpt>
      <trkpt lat="43.79891" lon="7.40513">
        <ele>660</ele>
        <time>2017-02-04T08:22:53Z</time>
      </trkpt>
      <trkpt lat="43.79896" lon="7.40516">
        <ele>661</ele>
        <time>2017-02-04T08:24:53Z</time>
      </trkpt>
      <trkpt lat="43.79909" lon="7.40514">
        <ele>659</ele>
        <time>2017-02-04T08:26:53Z</time>
      </trkpt>
      <trkpt lat="43.79923" lon="7.40526">
        <ele>664</ele>
        <time>2017-02-04T08:28:53Z</time>
      </trkpt>
      <trkpt lat="43.79963" lon="7.40483">
        <ele>639</ele>
        <time>2017-02-04T08:30:53Z</time>
      </trkpt>
      <trkpt lat="43.80009" lon="7.40494">
        <ele>640</ele>
        <time>2017-02-04T08:32:53Z</time>
      </trkpt>
      <trkpt lat="43.80011" lon="7.40516">
        <ele>649</ele>
        <time>2017-02-04T08:34:53Z</time>
      </trkpt>
      <trkpt lat="43.80046" lon="7.40535">
        <ele>644</ele>
        <time>2017-02-04T08:36:53Z</time>
      </trkpt>
      <trkpt lat="43.80041" lon="7.40508">
        <ele>635</ele>
        <time>2017-02-04T08:38:53Z</time>
      </trkpt>
      <trkpt lat="43.80073" lon="7.40567">
        <ele>646</ele>
        <time>2017-02-04T08:40:53Z</time>
      </trkpt>
      <trkpt lat="43.80158" lon="7.40495">
        <ele>601</ele>
        <time>2017-02-04T08:42:53Z</time>
      </trkpt>
      <trkpt lat="43.80168" lon="7.40504">
        <ele>605</ele>
        <time>2017-02-04T08:44:53Z</time>
      </trkpt>
      <trkpt lat="43.80226" lon="7.4048">
        <ele>614</ele>
        <time>2017-02-04T08:46:53Z</time>
      </trkpt>
      <trkpt lat="43.8023" lon="7.4048">
        <ele>615</ele>
        <time>2017-02-04T08:48:53Z</time>
      </trkpt>
      <trkpt lat="43.80239" lon="7.40479">
        <ele>618</ele>
        <time>2017-02-04T08:50:53Z</time>
      </trkpt>
      <trkpt lat="43.80245" lon="7.40473">
        <ele>618</ele>
        <time>2017-02-04T08:52:53Z</time>
      </trkpt>
      <trkpt lat="43.80249" lon="7.40468">
        <ele>618</ele>
        <time>2017-02-04T08:54:53Z</time>
      </trkpt>
      <trkpt lat="43.80253" lon="7.40464">
        <ele>618</ele>
        <time>2017-02-04T08:56:53Z</time>
      </trkpt>
      <trkpt lat="43.80261" lon="7.40451">
        <ele>616</ele>
        <time>2017-02-04T08:58:53Z</time>
      </trkpt>
      <trkpt lat="43.80278" lon="7.40422">
        <ele>610</ele>
        <time>2017-02-04T09:00:53Z</time>
      </trkpt>
      <trkpt lat="43.80283" lon="7.4041">
        <ele>609</ele>
        <time>2017-02-04T09:02:53Z</time>
      </trkpt>
      <trkpt lat="43.80278" lon="7.40396">
        <ele>609</ele>
        <time>2017-02-04T09:04:53Z</time>
      </trkpt>
      <trkpt lat="43.8028" lon="7.40383">
        <ele>611</ele>
        <time>2017-02-04T09:06:53Z</time>
      </trkpt>
      <trkpt lat="43.80279" lon="7.40371">
        <ele>612</ele>
        <time>2017-02-04T09:08:53Z</time>
      </trkpt>
      <trkpt lat="43.80291" lon="7.4035">
        <ele>616</ele>
        <time>2017-02-04T09:10:53Z</time>
      </trkpt>
      <trkpt lat="43.80301" lon="7.40345">
        <ele>619</ele>
        <time>2017-02-04T09:12:53Z</time>
      </trkpt>
      <trkpt lat="43.80345" lon="7.40382">
        <ele>627</ele>
        <time>2017-02-04T09:14:53Z</time>
      </trkpt>
      <trkpt lat="43.80366" lon="7.40344">
        <ele>636</ele>
        <time>2017-02-04T09:16:53Z</time>
      </trkpt>
      <trkpt lat="43.80336" lon="7.40345">
        <ele>628</ele>
        <time>2017-02-04T09:18:53Z</time>
      </trkpt>
      <trkpt lat="43.80299" lon="7.40325">
        <ele>621</ele>
        <time>2017-02-04T09:20:53Z</time>
      </trkpt>
      <trkpt lat="43.80323" lon="7.40341">
        <ele>625</ele>
        <time>2017-02-04T09:22:53Z</time>
      </trkpt>
      <trkpt lat="43.80287" lon="7.40317">
        <ele>619</ele>
        <time>2017-02-04T09:24:53Z</time>
      </trkpt>
      <trkpt lat="43.80284" lon="7.40227">
        <ele>628</ele>
        <time>2017-02-04T09:26:53Z</time>
      </trkpt>
      <trkpt lat="43.80299" lon="7.40209">
        <ele>634</ele>
        <time>2017-02-04T09:28:53Z</time>
      </trkpt>
      <trkpt lat="43.80274" lon="7.40269">
        <ele>622</ele>
        <time>2017-02-04T09:30:53Z</time>
      </trkpt>
      <trkpt lat="43.80282" lon="7.40221">
        <ele>628</ele>
        <time>2017-02-04T09:32:53Z</time>
      </trkpt>
      <trkpt lat="43.80279" lon="7.40192">
        <ele>627</ele>
        <time>2017-02-04T09:34:53Z</time>
      </trkpt>
      <trkpt lat="43.8025" lon="7.40176">
        <ele>615</ele>
        <time>2017-02-04T09:36:53Z</time>
      </trkpt>
      <trkpt lat="43.80248" lon="7.40161">
        <ele>613</ele>
        <time>2017-02-04T09:38:53Z</time>
      </trkpt>
      <trkpt lat="43.80233" lon="7.40147">
        <ele>604</ele>
        <time>2017-02-04T09:40:53Z</time>
      </trkpt>
      <trkpt lat="43.80229" lon="7.40137">
        <ele>601</ele>
        <time>2017-02-04T09:42:53Z</time>
      </trkpt>
      <trkpt lat="43.80235" lon="7.40127">
        <ele>604</ele>
        <time>2017-02-04T09:44:53Z</time>
      </trkpt>
      <trkpt lat="43.80236" lon="7.40098">
        <ele>604</ele>
        <time>2017-02-04T09:46:53Z</time>
      </trkpt>
      <trkpt lat="43.80244" lon="7.40071">
        <ele>609</ele>
        <time>2017-02-04T09:48:53Z</time>
      </trkpt>
      <trkpt lat="43.80245" lon="7.40045">
        <ele>612</ele>
        <time>2017-02-04T09:50:53Z</time>
      </trkpt>
      <trkpt lat="43.80229" lon="7.40039">
        <ele>605</ele>
        <time>2017-02-04T09:52:53Z</time>
      </trkpt>
      <trkpt lat="43.80223" lon="7.40025">
        <ele>603</ele>
        <time>2017-02-04T09:54:53Z</time>
      </trkpt>
      <trkpt lat="43.8022" lon="7.40025">
        <ele>602</ele>
        <time>2017-02-04T09:56:53Z</time>
      </trkpt>
      <trkpt lat="43.80218" lon="7.40016">
        <ele>602</ele>
        <time>2017-02-04T09:58:53Z</time>
      </trkpt>
      <trkpt lat="43.80216" lon="7.40015">
        <ele>601</ele>
        <time>2017-02-04T10:00:53Z</time>
      </trkpt>
      <trkpt lat="43.80216" lon="7.40013">
        <ele>601</ele>
        <time>2017-02-04T10:02:53Z</time>
      </trkpt>
      <trkpt lat="43.80209" lon="7.39995">
        <ele>600</ele>
        <time>2017-02-04T10:04:53Z</time>
      </trkpt>
      <trkpt lat="43.80207" lon="7.39983">
        <ele>600</ele>
        <time>2017-02-04T10:06:53Z</time>
      </trkpt>
      <trkpt lat="43.80209" lon="7.39968">
        <ele>602</ele>
        <time>2017-02-04T10:08:53Z</time>
      </trkpt>
      <trkpt lat="43.80206" lon="7.39962">
        <ele>601</ele>
        <time>2017-02-04T10:10:53Z</time>
      </trkpt>
      <trkpt lat="43.80202" lon="7.39961">
        <ele>599</ele>
        <time>2017-02-04T10:12:53Z</time>
      </trkpt>
      <trkpt lat="43.80201" lon="7.39979">
        <ele>597</ele>
        <time>2017-02-04T10:14:53Z</time>
      </trkpt>
      <trkpt lat="43.80203" lon="7.39986">
        <ele>598</ele>
        <time>2017-02-04T10:16:53Z</time>
      </trkpt>
      <trkpt lat="43.80204" lon="7.39989">
        <ele>598</ele>
        <time>2017-02-04T10:18:53Z</time>
      </trkpt>
      <trkpt lat="43.80202" lon="7.3999">
        <ele>597</ele>
        <time>2017-02-04T10:20:53Z</time>
      </trkpt>
      <trkpt lat="43.80205" lon="7.39996">
        <ele>598</ele>
        <time>2017-02-04T10:22:53Z</time>
      </trkpt>
      <trkpt lat="43.80201" lon="7.4001">
        <ele>594</ele>
        <time>2017-02-04T10:24:53Z</time>
      </trkpt>
      <trkpt lat="43.80199" lon="7.40006">
        <ele>593</ele>
        <time>2017-02-04T10:26:53Z</time>
      </trkpt>
      <trkpt lat="43.80186" lon="7.39996">
        <ele>588</ele>
        <time>2017-02-04T10:28:53Z</time>
      </trkpt>
      <trkpt lat="43.8018" lon="7.39991">
        <ele>585</ele>
        <time>2017-02-04T10:30:53Z</time>
      </trkpt>
      <trkpt lat="43.80178" lon="7.3999">
        <ele>584</ele>
        <time>2017-02-04T10:32:53Z</time>
      </trkpt>
      <trkpt lat="43.80172" lon="7.39979">
        <ele>582</ele>
        <time>2017-02-04T10:34:53Z</time>
      </trkpt>
      <trkpt lat="43.80169" lon="7.39975">
        <ele>581</ele>
        <time>2017-02-04T10:36:53Z</time>
      </trkpt>
      <trkpt lat="43.80168" lon="7.39971">
        <ele>581</ele>
        <time>2017-02-04T10:38:53Z</time>
      </trkpt>
      <trkpt lat="43.80174" lon="7.39966">
        <ele>584</ele>
        <time>2017-02-04T10:40:53Z</time>
      </trkpt>
      <trkpt lat="43.80174" lon="7.39957">
        <ele>585</ele>
        <time>2017-02-04T10:42:53Z</time>
      </trkpt>
      <trkpt lat="43.80169" lon="7.39944">
        <ele>583</ele>
        <time>2017-02-04T10:44:53Z</time>
      </trkpt>
      <trkpt lat="43.80168" lon="7.39911">
        <ele>585</ele>
        <time>2017-02-04T10:46:53Z</time>
      </trkpt>
      <trkpt lat="43.8017" lon="7.399">
        <ele>587</ele>
        <time>2017-02-04T10:48:53Z</time>
      </trkpt>
      <trkpt lat="43.80162" lon="7.39882">
        <ele>584</ele>
        <time>2017-02-04T10:50:53Z</time>
      </trkpt>
      <trkpt lat="43.80165" lon="7.3987">
        <ele>586</ele>
        <time>2017-02-04T10:52:53Z</time>
      </trkpt>
      <trkpt lat="43.80158" lon="7.39857">
        <ele>584</ele>
        <time>2017-02-04T10:54:53Z</time>
      </trkpt>
      <trkpt lat="43.80137" lon="7.39848">
        <ele>576</ele>
        <time>2017-02-04T10:56:53Z</time>
      </trkpt>
      <trkpt lat="43.80125" lon="7.39829">
        <ele>572</ele>
        <time>2017-02-04T10:58:53Z</time>
      </trkpt>
      <trkpt lat="43.8012" lon="7.39819">
        <ele>571</ele>
        <time>2017-02-04T11:00:53Z</time>
      </trkpt>
      <trkpt lat="43.80111" lon="7.39804">
        <ele>569</ele>
        <time>2017-02-04T11:02:53Z</time>
      </trkpt>
      <trkpt lat="43.80106" lon="7.39793">
        <ele>568</ele>
        <time>2017-02-04T11:04:53Z</time>
      </trkpt>
      <trkpt lat="43.80097" lon="7.3978">
        <ele>565</ele>
        <time>2017-02-04T11:06:53Z</time>
      </trkpt>
      <trkpt lat="43.80087" lon="7.39768">
        <ele>562</ele>
        <time>2017-02-04T11:08:53Z</time>
      </trkpt>
      <trkpt lat="43.80077" lon="7.3976">
        <ele>558</ele>
        <time>2017-02-04T11:10:53Z</time>
      </trkpt>
      <trkpt lat="43.80059" lon="7.39748">
        <ele>551</ele>
        <time>2017-02-04T11:12:53Z</time>
      </trkpt>
      <trkpt lat="43.80062" lon="7.39748">
        <ele>553</ele>
        <time>2017-02-04T11:14:53Z</time>
      </trkpt>
      <trkpt lat="43.80063" lon="7.39751">
        <ele>553</ele>
        <time>2017-02-04T11:16:53Z</time>
      </trkpt>
      <trkpt lat="43.80068" lon="7.39753">
        <ele>555</ele>
        <time>2017-02-04T11:18:53Z</time>
      </trkpt>
      <trkpt lat="43.80073" lon="7.39778">
        <ele>555</ele>
        <time>2017-02-04T11:20:53Z</time>
      </trkpt>
      <trkpt lat="43.80076" lon="7.39801">
        <ele>555</ele>
        <time>2017-02-04T11:22:53Z</time>
      </trkpt>
      <trkpt lat="43.80076" lon="7.39825">
        <ele>553</ele>
        <time>2017-02-04T11:24:53Z</time>
      </trkpt>
      <trkpt lat="43.80075" lon="7.3983">
        <ele>552</ele>
        <time>2017-02-04T11:26:53Z</time>
      </trkpt>
      <trkpt lat="43.80081" lon="7.3985">
        <ele>552</ele>
        <time>2017-02-04T11:28:53Z</time>
      </trkpt>
      <trkpt lat="43.80084" lon="7.39857">
        <ele>552</ele>
        <time>2017-02-04T11:30:53Z</time>
      </trkpt>
      <trkpt lat="43.80087" lon="7.3987">
        <ele>552</ele>
        <time>2017-02-04T11:32:53Z</time>
      </trkpt>
      <trkpt lat="43.8009" lon="7.39876">
        <ele>552</ele>
        <time>2017-02-04T11:34:53Z</time>
      </trkpt>
      <trkpt lat="43.80092" lon="7.39888">
        <ele>552</ele>
        <time>2017-02-04T11:36:53Z</time>
      </trkpt>
      <trkpt lat="43.80094" lon="7.39899">
        <ele>551</ele>
        <time>2017-02-04T11:38:53Z</time>
      </trkpt>
      <trkpt lat="43.80095" lon="7.39911">
        <ele>550</ele>
        <time>2017-02-04T11:40:53Z</time>
      </trkpt>
      <trkpt lat="43.80093" lon="7.39941">
        <ele>546</ele>
        <time>2017-02-04T11:42:53Z</time>
      </trkpt>
      <trkpt lat="43.80091" lon="7.39956">
        <ele>543</ele>
        <time>2017-02-04T11:44:53Z</time>
      </trkpt>
      <trkpt lat="43.80092" lon="7.39965">
        <ele>543</ele>
        <time>2017-02-04T11:46:53Z</time>
      </trkpt>
      <trkpt lat="43.80092" lon="7.39972">
        <ele>542</ele>
        <time>2017-02-04T11:48:53Z</time>
      </trkpt>
      <trkpt lat="43.80096" lon="7.39982">
        <ele>543</ele>
        <time>2017-02-04T11:50:53Z</time>
      </trkpt>
      <trkpt lat="43.80095" lon="7.39991">
        <ele>541</ele>
        <time>2017-02-04T11:52:53Z</time>
      </trkpt>
      <trkpt lat="43.80088" lon="7.40001">
        <ele>536</ele>
        <time>2017-02-04T11:54:53Z</time>
      </trkpt>
      <trkpt lat="43.80084" lon="7.39997">
        <ele>535</ele>
        <time>2017-02-04T11:56:53Z</time>
      </trkpt>
      <trkpt lat="43.80072" lon="7.39999">
        <ele>529</ele>
        <time>2017-02-04T11:58:53Z</time>
      </trkpt>
      <trkpt lat="43.80063" lon="7.40014">
        <ele>522</ele>
        <time>2017-02-04T12:00:53Z</time>
      </trkpt>
      <trkpt lat="43.80067" lon="7.40026">
        <ele>522</ele>
        <time>2017-02-04T12:02:53Z</time>
      </trkpt>
      <trkpt lat="43.79946" lon="7.40007">
        <ele>470</ele>
        <time>2017-02-04T12:04:53Z</time>
      </trkpt>
      <trkpt lat="43.79912" lon="7.39939">
        <ele>461</ele>
        <time>2017-02-04T12:06:53Z</time>
      </trkpt>
      <trkpt lat="43.79816" lon="7.39905">
        <ele>422</ele>
        <time>2017-02-04T12:08:53Z</time>
      </trkpt>
      <trkpt lat="43.79805" lon="7.39885">
        <ele>418</ele>
        <time>2017-02-04T12:10:53Z</time>
      </trkpt>
      <trkpt lat="43.7978" lon="7.39941">
        <ele>425</ele>
        <time>2017-02-04T12:12:53Z</time>
      </trkpt>
      <trkpt lat="43.79665" lon="7.39802">
        <ele>415</ele>
        <time>2017-02-04T12:14:53Z</time>
      </trkpt>
      <trkpt lat="43.79636" lon="7.39771">
        <ele>420</ele>
        <time>2017-02-04T12:16:53Z</time>
      </trkpt>
      <trkpt lat="43.79624" lon="7.39748">
        <ele>418</ele>
        <time>2017-02-04T12:18:53Z</time>
      </trkpt>
      <trkpt lat="43.79619" lon="7.3973">
        <ele>416</ele>
        <time>2017-02-04T12:20:53Z</time>
      </trkpt>
      <trkpt lat="43.79602" lon="7.39707">
        <ele>417</ele>
        <time>2017-02-04T12:22:53Z</time>
      </trkpt>
      <trkpt lat="43.79593" lon="7.39689">
        <ele>415</ele>
        <time>2017-02-04T12:24:53Z</time>
      </trkpt>
      <trkpt lat="43.7951" lon="7.39471">
        <ele>415</ele>
        <time>2017-02-04T12:26:53Z</time>
      </trkpt>
      <trkpt lat="43.79508" lon="7.39401">
        <ele>401</ele>
        <time>2017-02-04T12:28:53Z</time>
      </trkpt>
      <trkpt lat="43.79485" lon="7.3935">
        <ele>403</ele>
        <time>2017-02-04T12:30:53Z</time>
      </trkpt>
      <trkpt lat="43.79375" lon="7.39286">
        <ele>436</ele>
        <time>2017-02-04T12:32:53Z</time>
      </trkpt>
      <trkpt lat="43.79331" lon="7.39249">
        <ele>439</ele>
        <time>2017-02-04T12:34:53Z</time>
      </trkpt>
      <trkpt lat="43.79274" lon="7.39106">
        <ele>443</ele>
        <time>2017-02-04T12:36:53Z</time>
      </trkpt>
      <trkpt lat="43.79177" lon="7.39088">
        <ele>473</ele>
        <time>2017-02-04T12:38:53Z</time>
      </trkpt>
      <trkpt lat="43.79154" lon="7.39069">
        <ele>481</ele>
        <time>2017-02-04T12:40:53Z</time>
      </trkpt>
      <trkpt lat="43.79122" lon="7.39012">
        <ele>488</ele>
        <time>2017-02-04T12:42:53Z</time>
      </trkpt>
      <trkpt lat="43.79086" lon="7.38984">
        <ele>501</ele>
        <time>2017-02-04T12:44:53Z</time>
      </trkpt>
      <trkpt lat="43.79079" lon="7.3894">
        <ele>498</ele>
        <time>2017-02-04T12:46:53Z</time>
      </trkpt>
      <trkpt lat="43.79075" lon="7.38936">
        <ele>499</ele>
        <time>2017-02-04T12:48:53Z</time>
      </trkpt>
      <trkpt lat="43.79074" lon="7.38941">
        <ele>499</ele>
        <time>2017-02-04T12:50:53Z</time>
      </trkpt>
      <trkpt lat="43.7907" lon="7.38939">
        <ele>499</ele>
        <time>2017-02-04T12:52:53Z</time>
      </trkpt>
      <trkpt lat="43.79056" lon="7.38925">
        <ele>499</ele>
        <time>2017-02-04T12:54:53Z</time>
      </trkpt>
      <trkpt lat="43.79036" lon="7.38915">
        <ele>498</ele>
        <time>2017-02-04T12:56:53Z</time>
      </trkpt>
      <trkpt lat="43.7902" lon="7.38913">
        <ele>499</ele>
        <time>2017-02-04T12:58:53Z</time>
      </trkpt>
      <trkpt lat="43.79005" lon="7.38914">
        <ele>500</ele>
        <time>2017-02-04T13:00:53Z</time>
      </trkpt>
      <trkpt lat="43.7899" lon="7.38914">
        <ele>502</ele>
        <time>2017-02-04T13:02:53Z</time>
      </trkpt>
      <trkpt lat="43.78961" lon="7.38905">
        <ele>505</ele>
        <time>2017-02-04T13:04:53Z</time>
      </trkpt>
      <trkpt lat="43.78868" lon="7.38881">
        <ele>519</ele>
        <time>2017-02-04T13:06:53Z</time>
      </trkpt>
      <trkpt lat="43.78858" lon="7.38857">
        <ele>516</ele>
        <time>2017-02-04T13:08:53Z</time>
      </trkpt>
      <trkpt lat="43.78781" lon="7.38932">
        <ele>543</ele>
        <time>2017-02-04T13:10:53Z</time>
      </trkpt>
      <trkpt lat="43.78768" lon="7.3893">
        <ele>543</ele>
        <time>2017-02-04T13:12:53Z</time>
      </trkpt>
      <trkpt lat="43.78759" lon="7.38931">
        <ele>544</ele>
        <time>2017-02-04T13:14:53Z</time>
      </trkpt>
      <trkpt lat="43.78752" lon="7.38926">
        <ele>542</ele>
        <time>2017-02-04T13:16:53Z</time>
      </trkpt>
      <trkpt lat="43.78742" lon="7.38921">
        <ele>542</ele>
        <time>2017-02-04T13:18:53Z</time>
      </trkpt>
      <trkpt lat="43.78726" lon="7.38915">
        <ele>543</ele>
        <time>2017-02-04T13:20:53Z</time>
      </trkpt>
      <trkpt lat="43.78673" lon="7.38886">
        <ele>543</ele>
        <time>2017-02-04T13:22:53Z</time>
      </trkpt>
      <trkpt lat="43.78671" lon="7.38885">
        <ele>543</ele>
        <time>2017-02-04T13:24:53Z</time>
      </trkpt>
      <trkpt lat="43.78661" lon="7.38883">
        <ele>545</ele>
        <time>2017-02-04T13:26:53Z</time>
      </trkpt>
      <trkpt lat="43.78628" lon="7.38866">
        <ele>550</ele>
        <time>2017-02-04T13:28:53Z</time>
      </trkpt>
      <trkpt lat="43.78607" lon="7.38855">
        <ele>552</ele>
        <time>2017-02-04T13:30:53Z</time>
      </trkpt>
      <trkpt lat="43.78594" lon="7.38842">
        <ele>550</ele>
        <time>2017-02-04T13:32:53Z</time>
      </trkpt>
      <trkpt lat="43.78595" lon="7.38843">
        <ele>551</ele>
        <time>2017-02-04T13:34:53Z</time>
      </trkpt>
      <trkpt lat="43.78585" lon="7.38826">
        <ele>549</ele>
        <time>2017-02-04T13:36:53Z</time>
      </trkpt>
      <trkpt lat="43.78567" lon="7.38817">
        <ele>553</ele>
        <time>2017-02-04T13:38:53Z</time>
      </trkpt>
      <trkpt lat="43.78563" lon="7.38804">
        <ele>552</ele>
        <time>2017-02-04T13:40:53Z</time>
      </trkpt>
      <trkpt lat="43.78545" lon="7.38772">
        <ele>549</ele>
        <time>2017-02-04T13:42:53Z</time>
      </trkpt>
      <trkpt lat="43.78519" lon="7.3875">
        <ele>547</ele>
        <time>2017-02-04T13:44:53Z</time>
      </trkpt>
      <trkpt lat="43.785" lon="7.38746">
        <ele>549</ele>
        <time>2017-02-04T13:46:53Z</time>
      </trkpt>
      <trkpt lat="43.78483" lon="7.38735">
        <ele>549</ele>
        <time>2017-02-04T13:48:53Z</time>
      </trkpt>
      <trkpt lat="43.7841" lon="7.38638">
        <ele>538</ele>
        <time>2017-02-04T13:50:53Z</time>
      </trkpt>
      <trkpt lat="43.78393" lon="7.38603">
        <ele>541</ele>
        <time>2017-02-04T13:52:53Z</time>
      </trkpt>
      <trkpt lat="43.78404" lon="7.38481">
        <ele>534</ele>
        <time>2017-02-04T13:54:53Z</time>
      </trkpt>
      <trkpt lat="43.78405" lon="7.38473">
        <ele>532</ele>
        <time>2017-02-04T13:56:53Z</time>
      </trkpt>
      <trkpt lat="43.78397" lon="7.38457">
        <ele>530</ele>
        <time>2017-02-04T13:58:53Z</time>
      </trkpt>
      <trkpt lat="43.78393" lon="7.38454">
        <ele>530</ele>
        <time>2017-02-04T14:00:53Z</time>
      </trkpt>
      <trkpt lat="43.78359" lon="7.38416">
        <ele>527</ele>
        <time>2017-02-04T14:02:53Z</time>
      </trkpt>
      <trkpt lat="43.78333" lon="7.3835">
        <ele>522</ele>
        <time>2017-02-04T14:04:53Z</time>
      </trkpt>
      <trkpt lat="43.78327" lon="7.38331">
        <ele>518</ele>
        <time>2017-02-04T14:06:53Z</time>
      </trkpt>
      <trkpt lat="43.78314" lon="7.38306">
        <ele>514</ele>
        <time>2017-02-04T14:08:53Z</time>
      </trkpt>
      <trkpt lat="43.78255" lon="7.38207">
        <ele>500</ele>
        <time>2017-02-04T14:10:53Z</time>
      </trkpt>
      <trkpt lat="43.78214" lon="7.38185">
        <ele>491</ele>
        <time>2017-02-04T14:12:53Z</time>
      </trkpt>
      <trkpt lat="43.78191" lon="7.38163">
        <ele>489</ele>
        <time>2017-02-04T14:14:53Z</time>
      </trkpt>
      <trkpt lat="43.78172" lon="7.38171">
        <ele>487</ele>
        <time>2017-02-04T14:16:53Z</time>
      </trkpt>
      <trkpt lat="43.78121" lon="7.3816">
        <ele>472</ele>
        <time>2017-02-04T14:18:53Z</time>
      </trkpt>
      <trkpt lat="43.78076" lon="7.38196">
        <ele>448</ele>
        <time>2017-02-04T14:20:53Z</time>
      </trkpt>
      <trkpt lat="43.78064" lon="7.38208">
        <ele>441</ele>
        <time>2017-02-04T14:22:53Z</time>
      </trkpt>
      <trkpt lat="43.78036" lon="7.38191">
        <ele>434</ele>
        <time>2017-02-04T14:24:53Z</time>
      </trkpt>
      <trkpt lat="43.78027" lon="7.38184">
        <ele>431</ele>
        <time>2017-02-04T14:26:53Z</time>
      </trkpt>
      <trkpt lat="43.78021" lon="7.38167">
        <ele>431</ele>
        <time>2017-02-04T14:28:53Z</time>
      </trkpt>
      <trkpt lat="43.78021" lon="7.38145">
        <ele>433</ele>
        <time>2017-02-04T14:30:53Z</time>
      </trkpt>
      <trkpt lat="43.78013" lon="7.38156">
        <ele>428</ele>
        <time>2017-02-04T14:32:53Z</time>
      </trkpt>
      <trkpt lat="43.78008" lon="7.3815">
        <ele>426</ele>
        <time>2017-02-04T14:34:53Z</time>
      </trkpt>
      <trkpt lat="43.77986" lon="7.38166">
        <ele>415</ele>
        <time>2017-02-04T14:36:53Z</time>
      </trkpt>
      <trkpt lat="43.77987" lon="7.38163">
        <ele>416</ele>
        <time>2017-02-04T14:38:53Z</time>
      </trkpt>
      <trkpt lat="43.77988" lon="7.38131">
        <ele>417</ele>
        <time>2017-02-04T14:40:53Z</time>
      </trkpt>
      <trkpt lat="43.77989" lon="7.37931">
        <ele>431</ele>
        <time>2017-02-04T14:42:53Z</time>
      </trkpt>
      <trkpt lat="43.77976" lon="7.37899">
        <ele>426</ele>
        <time>2017-02-04T14:44:53Z</time>
      </trkpt>
      <trkpt lat="43.77977" lon="7.37877">
        <ele>424</ele>
        <time>2017-02-04T14:46:53Z</time>
      </trkpt>
      <trkpt lat="43.78023" lon="7.37857">
        <ele>420</ele>
        <time>2017-02-04T14:48:53Z</time>
      </trkpt>
      <trkpt lat="43.78042" lon="7.37864">
        <ele>420</ele>
        <time>2017-02-04T14:50:53Z</time>
      </trkpt>
      <trkpt lat="43.78075" lon="7.37873">
        <ele>422</ele>
        <time>2017-02-04T14:52:53Z</time>
      </trkpt>
      <trkpt lat="43.78137" lon="7.3787">
        <ele>405</ele>
        <time>2017-02-04T14:54:53Z</time>
      </trkpt>
      <trkpt lat="43.78146" lon="7.3787">
        <ele>403</ele>
        <time>2017-02-04T14:56:53Z</time>
      </trkpt>
      <trkpt lat="43.78181" lon="7.37904">
        <ele>405</ele>
        <time>2017-02-04T14:58:53Z</time>
      </trkpt>
      <trkpt lat="43.78187" lon="7.37916">
        <ele>407</ele>
        <time>2017-02-04T15:00:53Z</time>
      </trkpt>
      <trkpt lat="43.7828" lon="7.3794">
        <ele>391</ele>
        <time>2017-02-04T15:02:53Z</time>
      </trkpt>
      <trkpt lat="43.78293" lon="7.37951">
        <ele>396</ele>
        <time>2017-02-04T15:04:53Z</time>
      </trkpt>
      <trkpt lat="43.783" lon="7.37949">
        <ele>395</ele>
        <time>2017-02-04T15:06:53Z</time>
      </trkpt>
      <trkpt lat="43.78321" lon="7.37932">
        <ele>386</ele>
        <time>2017-02-04T15:08:53Z</time>
      </trkpt>
      <trkpt lat="43.78339" lon="7.37912">
        <ele>375</ele>
        <time>2017-02-04T15:10:53Z</time>
      </trkpt>
      <trkpt lat="43.78353" lon="7.37907">
        <ele>370</ele>
        <time>2017-02-04T15:12:53Z</time>
      </trkpt>
      <trkpt lat="43.78369" lon="7.37906">
        <ele>367</ele>
        <time>2017-02-04T15:14:53Z</time>
      </trkpt>
      <trkpt lat="43.7841" lon="7.37913">
        <ele>364</ele>
        <time>2017-02-04T15:16:53Z</time>
      </trkpt>
      <trkpt lat="43.78424" lon="7.37917">
        <ele>364</ele>
        <time>2017-02-04T15:18:53Z</time>
      </trkpt>
      <trkpt lat="43.7844" lon="7.3792">
        <ele>362</ele>
        <time>2017-02-04T15:20:53Z</time>
      </trkpt>
      <trkpt lat="43.7844" lon="7.3792">
        <ele>362</ele>
        <time>2017-02-04T15:22:53Z</time>
      </trkpt>
      <trkpt lat="43.78449" lon="7.37907">
        <ele>355</ele>
        <time>2017-02-04T15:24:53Z</time>
      </trkpt>
      <trkpt lat="43.78458" lon="7.37903">
        <ele>352</ele>
        <time>2017-02-04T15:26:53Z</time>
      </trkpt>
      <trkpt lat="43.78503" lon="7.37903">
        <ele>343</ele>
        <time>2017-02-04T15:28:53Z</time>
      </trkpt>
      <trkpt lat="43.78507" lon="7.37906">
        <ele>343</ele>
        <time>2017-02-04T15:30:53Z</time>
      </trkpt>
      <trkpt lat="43.78527" lon="7.37922">
        <ele>343</ele>
        <time>2017-02-04T15:32:53Z</time>
      </trkpt>
      <trkpt lat="43.78551" lon="7.37957">
        <ele>345</ele>
        <time>2017-02-04T15:34:53Z</time>
      </trkpt>
      <trkpt lat="43.7856" lon="7.37956">
        <ele>342</ele>
        <time>2017-02-04T15:36:53Z</time>
      </trkpt>
      <trkpt lat="43.78575" lon="7.37954">
        <ele>336</ele>
        <time>2017-02-04T15:38:53Z</time>
      </trkpt>
      <trkpt lat="43.78592" lon="7.3796">
        <ele>332</ele>
        <time>2017-02-04T15:40:53Z</time>
      </trkpt>
      <trkpt lat="43.78595" lon="7.3796">
        <ele>331</ele>
        <time>2017-02-04T15:42:53Z</time>
      </trkpt>
      <trkpt lat="43.78608" lon="7.37964">
        <ele>329</ele>
        <time>2017-02-04T15:44:53Z</time>
      </trkpt>
      <trkpt lat="43.7861" lon="7.37968">
        <ele>329</ele>
        <time>2017-02-04T15:46:53Z</time>
      </trkpt>
      <trkpt lat="43.78618" lon="7.38">
        <ele>335</ele>
        <time>2017-02-04T15:48:53Z</time>
      </trkpt>
      <trkpt lat="43.78629" lon="7.3803">
        <ele>340</ele>
        <time>2017-02-04T15:50:53Z</time>
      </trkpt>
      <trkpt lat="43.7864" lon="7.38029">
        <ele>337</ele>
        <time>2017-02-04T15:52:53Z</time>
      </trkpt>
      <trkpt lat="43.78652" lon="7.3803">
        <ele>334</ele>
        <time>2017-02-04T15:54:53Z</time>
      </trkpt>
      <trkpt lat="43.78682" lon="7.38036">
        <ele>329</ele>
        <time>2017-02-04T15:56:53Z</time>
      </trkpt>
      <trkpt lat="43.78689" lon="7.38028">
        <ele>325</ele>
        <time>2017-02-04T15:58:53Z</time>
      </trkpt>
      <trkpt lat="43.78702" lon="7.38034">
        <ele>323</ele>
        <time>2017-02-04T16:00:53Z</time>
      </trkpt>
      <trkpt lat="43.78728" lon="7.38023">
        <ele>315</ele>
        <time>2017-02-04T16:02:53Z</time>
      </trkpt>
      <trkpt lat="43.78761" lon="7.37981">
        <ele>301</ele>
        <time>2017-02-04T16:04:53Z</time>
      </trkpt>
      <trkpt lat="43.7878" lon="7.37968">
        <ele>297</ele>
        <time>2017-02-04T16:06:53Z</time>
      </trkpt>
      <trkpt lat="43.7879" lon="7.37949">
        <ele>292</ele>
        <time>2017-02-04T16:08:53Z</time>
      </trkpt>
      <trkpt lat="43.78802" lon="7.37934">
        <ele>289</ele>
        <time>2017-02-04T16:10:53Z</time>
      </trkpt>
      <trkpt lat="43.78816" lon="7.37911">
        <ele>285</ele>
        <time>2017-02-04T16:12:53Z</time>
      </trkpt>
      <trkpt lat="43.78822" lon="7.37896">
        <ele>282</ele>
        <time>2017-02-04T16:14:53Z</time>
      </trkpt>
      <trkpt lat="43.78831" lon="7.37881">
        <ele>279</ele>
        <time>2017-02-04T16:16:53Z</time>
      </trkpt>
      <trkpt lat="43.78841" lon="7.37868">
        <ele>276</ele>
        <time>2017-02-04T16:18:53Z</time>
      </trkpt>
      <trkpt lat="43.78848" lon="7.37854">
        <ele>273</ele>
        <time>2017-02-04T16:20:53Z</time>
      </trkpt>
      <trkpt lat="43.7887" lon="7.37835">
        <ele>266</ele>
        <time>2017-02-04T16:22:53Z</time>
      </trkpt>
      <trkpt lat="43.78878" lon="7.37825">
        <ele>262</ele>
        <time>2017-02-04T16:24:53Z</time>
      </trkpt>
      <trkpt lat="43.78898" lon="7.37864">
        <ele>265</ele>
        <time>2017-02-04T16:26:53Z</time>
      </trkpt>
      <trkpt lat="43.78936" lon="7.37841">
        <ele>255</ele>
        <time>2017-02-04T16:28:53Z</time>
      </trkpt>
      <trkpt lat="43.78941" lon="7.37826">
        <ele>252</ele>
        <time>2017-02-04T16:30:53Z</time>
      </trkpt>
      <trkpt lat="43.78947" lon="7.37824">
        <ele>251</ele>
        <time>2017-02-04T16:32:53Z</time>
      </trkpt>
      <trkpt lat="43.78962" lon="7.37837">
        <ele>250</ele>
        <time>2017-02-04T16:34:53Z</time>
      </trkpt>
      <trkpt lat="43.78976" lon="7.37849">
        <ele>249</ele>
        <time>2017-02-04T16:36:53Z</time>
      </trkpt>
      <trkpt lat="43.78997" lon="7.37863">
        <ele>248</ele>
        <time>2017-02-04T16:38:53Z</time>
      </trkpt>
      <trkpt lat="43.79016" lon="7.37874">
        <ele>248</ele>
        <time>2017-02-04T16:40:53Z</time>
      </trkpt>
      <trkpt lat="43.7903" lon="7.37885">
        <ele>249</ele>
        <time>2017-02-04T16:42:53Z</time>
      </trkpt>
      <trkpt lat="43.79045" lon="7.37882">
        <ele>248</ele>
        <time>2017-02-04T16:44:53Z</time>
      </trkpt>
      <trkpt lat="43.79047" lon="7.3788">
        <ele>248</ele>
        <time>2017-02-04T16:46:53Z</time>
      </trkpt>
      <trkpt lat="43.79061" lon="7.37859">
        <ele>245</ele>
        <time>2017-02-04T16:48:53Z</time>
      </trkpt>
      <trkpt lat="43.79077" lon="7.37839">
        <ele>243</ele>
        <time>2017-02-04T16:50:53Z</time>
      </trkpt>
      <trkpt lat="43.79093" lon="7.37833">
        <ele>240</ele>
        <time>2017-02-04T16:52:53Z</time>
      </trkpt>
      <trkpt lat="43.79108" lon="7.3785">
        <ele>240</ele>
        <time>2017-02-04T16:54:53Z</time>
      </trkpt>
      <trkpt lat="43.79114" lon="7.37869">
        <ele>241</ele>
        <time>2017-02-04T16:56:53Z</time>
      </trkpt>
      <trkpt lat="43.79115" lon="7.37897">
        <ele>245</ele>
        <time>2017-02-04T16:58:53Z</time>
      </trkpt>
      <trkpt lat="43.79132" lon="7.37901">
        <ele>244</ele>
        <time>2017-02-04T17:00:53Z</time>
      </trkpt>
      <trkpt lat="43.79158" lon="7.37915">
        <ele>245</ele>
        <time>2017-02-04T17:02:53Z</time>
      </trkpt>
      <trkpt lat="43.79178" lon="7.37924">
        <ele>245</ele>
        <time>2017-02-04T17:04:53Z</time>
      </trkpt>
      <trkpt lat="43.7919" lon="7.37938">
        <ele>245</ele>
        <time>2017-02-04T17:06:53Z</time>
      </trkpt>
      <trkpt lat="43.79216" lon="7.37964">
        <ele>245</ele>
        <time>2017-02-04T17:08:53Z</time>
      </trkpt>
      <trkpt lat="43.79226" lon="7.37974">
        <ele>245</ele>
        <time>2017-02-04T17:10:53Z</time>
      </trkpt>
      <trkpt lat="43.79221" lon="7.37984">
        <ele>247</ele>
        <time>2017-02-04T17:12:53Z</time>
      </trkpt>
      <trkpt lat="43.79215" lon="7.3799">
        <ele>248</ele>
        <time>2017-02-04T17:14:53Z</time>
      </trkpt>
    </trkseg>
  </trk>
</gpx>